createdAt,value
2018-11-11T00:00:14.006Z,100092.72
2018-11-11T00:05:17.107Z,100093.58
2018-11-11T00:10:20.762Z,100086.34
2018-11-11T00:15:27.047Z,100092.36
2018-11-11T00:20:30.091Z,100093.12
2018-11-11T00:25:33.136Z,100090.66
2018-11-11T00:30:39.382Z,100094.25
2018-11-11T00:35:44.876Z,100093.03
2018-11-11T00:40:49.057Z,100095.92
2018-11-11T00:45:54.798Z,100094.51
2018-11-11T00:50:57.895Z,100097.15
2018-11-11T00:56:04.730Z,100104.30
2018-11-11T01:01:10.091Z,100090.00
2018-11-11T01:06:13.220Z,100094.70
2018-11-11T01:11:19.105Z,100098.66
2018-11-11T01:16:22.223Z,100100.44
2018-11-11T01:21:25.349Z,100091.52
2018-11-11T01:26:28.454Z,100077.02
2018-11-11T01:31:31.535Z,100059.12
2018-11-11T01:36:34.621Z,100057.25
2018-11-11T01:41:37.752Z,100043.52
2018-11-11T01:58:11.123Z,100081.63
2018-11-11T02:03:14.197Z,100080.11
2018-11-11T02:08:17.392Z,100078.33
2018-11-11T02:13:20.429Z,100080.11
2018-11-11T02:18:23.511Z,100080.97
2018-11-11T02:23:26.771Z,100072.89
2018-11-11T02:28:29.852Z,100080.13
2018-11-11T02:33:32.993Z,100084.17
2018-11-11T02:38:36.129Z,100084.41
2018-11-11T02:43:39.226Z,100096.50
2018-11-11T02:48:42.295Z,100094.05
2018-11-11T02:53:45.633Z,100091.33
2018-11-11T02:58:48.834Z,100097.56
2018-11-11T03:03:51.897Z,100093.56
2018-11-11T03:08:54.965Z,100096.47
2018-11-11T03:13:58.062Z,100088.76
2018-11-11T03:19:01.105Z,100079.34
2018-11-11T03:24:04.716Z,100086.12
2018-11-11T03:29:07.849Z,100075.41
2018-11-11T03:34:10.901Z,100091.56
2018-11-11T03:39:14.013Z,100089.06
2018-11-11T03:44:17.072Z,100084.14
2018-11-11T03:49:20.158Z,100088.02
2018-11-11T03:54:23.193Z,100090.06
2018-11-11T03:59:26.255Z,100081.59
2018-11-11T04:04:29.545Z,100090.42
2018-11-11T04:09:32.810Z,100094.15
2018-11-11T04:14:35.895Z,100091.02
2018-11-11T04:19:38.969Z,100094.83
2018-11-11T04:24:42.044Z,100103.35
2018-11-11T04:29:45.141Z,100102.89
2018-11-11T04:34:48.218Z,100105.13
2018-11-11T04:39:51.323Z,100097.14
2018-11-11T04:44:54.688Z,100101.28
2018-11-11T04:49:57.747Z,100104.16
2018-11-11T04:55:01.037Z,100092.61
2018-11-11T05:00:05.816Z,100107.20
2018-11-11T05:05:10.059Z,100097.27
2018-11-11T05:10:13.690Z,100093.23
2018-11-11T05:15:16.784Z,100100.95
2018-11-11T05:20:19.842Z,100103.17
2018-11-11T05:25:22.930Z,100097.24
2018-11-11T05:30:25.970Z,100111.92
2018-11-11T05:35:29.049Z,100099.68
2018-11-11T05:40:32.156Z,100104.45
2018-11-11T05:45:35.227Z,100112.02
2018-11-11T05:50:38.292Z,100129.65
2018-11-11T05:55:41.594Z,100136.05
2018-11-11T06:00:44.681Z,100141.22
2018-11-11T06:05:47.735Z,100133.36
2018-11-11T06:10:50.819Z,100128.41
2018-11-11T06:15:53.930Z,100132.63
2018-11-11T06:20:57.048Z,100122.14
2018-11-11T06:26:00.242Z,100129.48
2018-11-11T06:31:04.380Z,100127.90
2018-11-11T06:36:07.455Z,100139.19
2018-11-11T06:41:10.560Z,100148.67
2018-11-11T06:46:13.947Z,100143.72
2018-11-11T06:51:17.009Z,100156.61
2018-11-11T06:56:20.258Z,100153.52
2018-11-11T07:01:23.326Z,100153.42
2018-11-11T07:06:26.874Z,100159.27
2018-11-11T07:11:30.032Z,100162.48
2018-11-11T07:16:33.123Z,100159.66
2018-11-11T07:21:36.611Z,100163.70
2018-11-11T07:26:39.724Z,100165.97
2018-11-11T07:31:42.864Z,100166.25
2018-11-11T07:36:46.034Z,100181.03
2018-11-11T07:41:49.174Z,100191.23
2018-11-11T07:46:52.255Z,100182.38
2018-11-11T07:51:55.450Z,100173.75
2018-11-11T07:56:58.810Z,100181.08
2018-11-11T08:02:02.008Z,100181.48
2018-11-11T08:07:05.692Z,100197.20
2018-11-11T08:12:09.028Z,100207.36
2018-11-11T08:17:12.094Z,100204.62
2018-11-11T08:22:15.155Z,100210.47
2018-11-11T08:27:18.227Z,100198.81
2018-11-11T08:32:21.354Z,100200.23
2018-11-11T08:37:24.389Z,100203.06
2018-11-11T08:42:27.511Z,100206.19
2018-11-11T08:47:30.688Z,100218.54
2018-11-11T08:52:33.874Z,100227.48
2018-11-11T08:57:37.086Z,100238.33
2018-11-11T09:02:40.691Z,100236.72
2018-11-11T09:07:43.881Z,100237.73
2018-11-11T09:12:46.984Z,100234.84
2018-11-11T09:17:50.076Z,100241.07
2018-11-11T09:22:53.144Z,100242.92
2018-11-11T09:27:56.295Z,100237.94
2018-11-11T09:32:59.347Z,100239.91
2018-11-11T09:38:02.384Z,100238.03
2018-11-11T09:43:06.044Z,100248.58
2018-11-11T09:48:09.093Z,100261.36
2018-11-11T09:53:12.194Z,100264.16
2018-11-11T09:58:15.226Z,100269.05
2018-11-11T10:03:22.269Z,100277.16
2018-11-11T10:19:56.942Z,100279.06
2018-11-11T10:25:08.788Z,100278.63
2018-11-11T10:30:19.096Z,100273.23
2018-11-11T10:35:29.184Z,100277.80
2018-11-11T10:40:50.424Z,100271.48
2018-11-11T10:45:59.952Z,100257.81
2018-11-11T10:51:04.243Z,100255.58
2018-11-11T10:56:07.331Z,100256.69
2018-11-11T11:01:16.202Z,100257.19
2018-11-11T11:06:23.818Z,100248.15
2018-11-11T11:11:26.974Z,100243.14
2018-11-11T11:16:30.053Z,100229.56
2018-11-11T11:21:33.108Z,100219.02
2018-11-11T11:26:36.292Z,100236.14
2018-11-11T11:31:39.450Z,100236.64
2018-11-11T11:36:42.419Z,100240.48
2018-11-11T11:41:45.507Z,100250.16
2018-11-11T11:46:48.580Z,100254.25
2018-11-11T11:51:51.748Z,100278.70
2018-11-11T11:56:54.935Z,100294.62
2018-11-11T12:01:58.055Z,100281.44
2018-11-11T12:07:04.610Z,100317.58
2018-11-11T12:12:18.010Z,100336.52
2018-11-11T12:17:24.716Z,100331.67
2018-11-11T12:22:31.994Z,100337.84
2018-11-11T12:27:37.480Z,100334.55
2018-11-11T12:32:40.506Z,100343.27
2018-11-11T12:37:45.415Z,100358.57
2018-11-11T12:42:57.474Z,100375.01
2018-11-11T12:48:00.558Z,100367.67
2018-11-11T12:58:19.409Z,100361.45
2018-11-11T13:03:25.075Z,100361.70
2018-11-11T13:08:28.157Z,100357.64
2018-11-11T13:13:31.415Z,100352.30
2018-11-11T13:18:34.867Z,100367.70
2018-11-11T13:23:37.946Z,100344.36
2018-11-11T13:28:41.017Z,100335.84
2018-11-11T13:33:44.119Z,100347.34
2018-11-11T13:38:50.305Z,100334.16
2018-11-11T13:43:56.802Z,100372.28
2018-11-11T13:49:02.526Z,100361.32
2018-11-11T13:54:10.024Z,100363.27
2018-11-11T13:59:15.485Z,100364.97
2018-11-11T14:04:18.649Z,100363.21
2018-11-11T14:09:21.703Z,100372.30
2018-11-11T14:14:24.748Z,100367.74
2018-11-11T14:19:28.244Z,100373.52
2018-11-11T14:24:31.362Z,100383.88
2018-11-11T14:29:34.617Z,100385.14
2018-11-11T14:34:37.674Z,100379.36
2018-11-11T14:39:40.778Z,100401.08
2018-11-11T14:44:43.850Z,100403.47
2018-11-11T14:49:47.353Z,100395.91
2018-11-11T14:54:50.413Z,100399.86
2018-11-11T14:59:53.463Z,100402.33
2018-11-11T15:04:56.578Z,100393.27
2018-11-11T15:09:59.661Z,100386.67
2018-11-11T15:15:02.826Z,100377.13
2018-11-11T15:20:07.692Z,100363.21
2018-11-11T15:25:14.654Z,100362.81
2018-11-11T15:30:20.150Z,100373.48
2018-11-11T15:35:23.270Z,100385.86
2018-11-11T15:40:27.683Z,100402.73
2018-11-11T15:45:33.026Z,100408.94
2018-11-11T15:50:36.652Z,100430.16
2018-11-11T15:55:40.267Z,100435.74
2018-11-11T16:00:43.745Z,100440.53
2018-11-11T16:05:46.751Z,100450.93
2018-11-11T16:10:49.807Z,100457.52
2018-11-11T16:15:52.839Z,100468.47
2018-11-11T16:20:55.968Z,100475.02
2018-11-11T16:25:59.003Z,100480.34
2018-11-11T16:31:02.043Z,100495.04
2018-11-11T16:36:05.464Z,100488.90
2018-11-11T16:41:08.834Z,100500.46
2018-11-11T16:46:11.730Z,100489.72
2018-11-11T16:51:14.846Z,100490.94
2018-11-11T16:56:17.922Z,100488.33
2018-11-11T17:01:23.250Z,100507.63
2018-11-11T17:06:26.435Z,100519.14
2018-11-11T17:11:29.491Z,100527.77
2018-11-11T17:16:32.559Z,100537.78
2018-11-11T17:21:35.655Z,100533.11
2018-11-11T17:26:38.895Z,100533.61
2018-11-11T17:31:42.234Z,100522.28
2018-11-11T17:36:45.409Z,100526.05
2018-11-11T17:41:48.590Z,100518.60
2018-11-11T17:46:51.674Z,100515.78
2018-11-11T17:51:54.829Z,100516.70
2018-11-11T17:56:57.930Z,100509.19
2018-11-11T18:02:00.999Z,100511.82
2018-11-11T18:07:04.143Z,100509.37
2018-11-11T18:12:07.252Z,100502.67
